createdAt,value
2019-02-21T00:00:50.276Z,71.00
2019-02-21T00:03:17.576Z,70.70
2019-02-21T00:05:45.916Z,70.90
2019-02-21T00:08:12.959Z,70.40
2019-02-21T00:10:40.788Z,70.60
2019-02-21T00:13:07.791Z,70.50
2019-02-21T00:15:35.384Z,70.40
2019-02-21T00:18:04.172Z,70.30
2019-02-21T00:20:33.095Z,70.30
2019-02-21T00:23:01.288Z,70.30
2019-02-21T00:25:28.883Z,70.30
2019-02-21T00:27:55.867Z,70.20
2019-02-21T00:30:34.533Z,70.40
2019-02-21T00:32:53.839Z,70.60
2019-02-21T00:35:22.067Z,70.40
2019-02-21T00:37:50.978Z,70.00
2019-02-21T00:40:18.173Z,70.10
2019-02-21T00:42:45.078Z,70.00
2019-02-21T00:45:12.476Z,70.00
2019-02-21T00:47:41.499Z,70.20
2019-02-21T00:50:09.839Z,70.20
2019-02-21T00:52:36.851Z,69.80
2019-02-21T00:55:04.083Z,69.30
2019-02-21T00:57:31.744Z,69.50
2019-02-21T00:59:58.767Z,69.60
2019-02-21T01:02:26.735Z,69.50
2019-02-21T01:04:53.748Z,69.70
2019-02-21T01:07:22.808Z,69.60
2019-02-21T01:09:51.499Z,69.40
2019-02-21T01:12:18.733Z,69.30
2019-02-21T01:14:46.210Z,70.10
2019-02-21T01:17:13.195Z,69.50
2019-02-21T01:19:41.153Z,69.20
2019-02-21T01:22:09.712Z,69.40
2019-02-21T01:24:39.095Z,69.30
2019-02-21T01:27:06.456Z,68.70
2019-02-21T01:29:33.556Z,69.40
2019-02-21T01:32:01.456Z,68.80
2019-02-21T01:34:28.918Z,69.40
2019-02-21T01:36:56.720Z,69.20
2019-02-21T01:39:23.704Z,68.70
2019-02-21T01:41:52.616Z,69.40
2019-02-21T01:44:20.146Z,68.80
2019-02-21T01:46:47.327Z,69.00
2019-02-21T01:49:16.044Z,69.00
2019-02-21T01:51:43.175Z,69.30
2019-02-21T01:54:10.295Z,69.00
2019-02-21T01:56:39.327Z,69.00
2019-02-21T01:59:06.951Z,68.80
2019-02-21T02:01:33.959Z,68.90
2019-02-21T02:04:00.936Z,68.90
2019-02-21T02:06:28.271Z,68.80
2019-02-21T02:08:56.809Z,68.50
2019-02-21T02:11:24.061Z,68.70
2019-02-21T02:13:51.871Z,68.70
2019-02-21T02:16:20.504Z,68.60
2019-02-21T02:18:47.859Z,68.60
2019-02-21T02:21:15.629Z,68.60
2019-02-21T02:23:42.703Z,68.50
2019-02-21T02:26:09.873Z,68.10
2019-02-21T02:28:37.980Z,68.60
2019-02-21T02:31:06.014Z,68.40
2019-02-21T02:33:33.407Z,68.60
2019-02-21T02:36:00.737Z,68.50
2019-02-21T02:38:28.869Z,68.20
2019-02-21T02:40:56.974Z,68.40
2019-02-21T02:43:24.112Z,68.60
2019-02-21T02:45:51.021Z,68.00
2019-02-21T02:48:18.061Z,68.40
2019-02-21T02:50:45.748Z,68.30
2019-02-21T02:53:14.183Z,68.30
2019-02-21T02:55:41.228Z,68.20
2019-02-21T02:58:09.741Z,67.80
2019-02-21T03:00:38.659Z,67.80
2019-02-21T03:03:07.126Z,68.00
2019-02-21T03:05:34.617Z,68.40
2019-02-21T03:08:01.750Z,68.10
2019-02-21T03:10:28.748Z,68.30
2019-02-21T03:12:56.064Z,68.00
2019-02-21T03:15:23.299Z,68.00
2019-02-21T03:17:51.773Z,67.70
2019-02-21T03:20:19.993Z,68.00
2019-02-21T03:22:47.127Z,68.10
2019-02-21T03:25:14.175Z,67.70
2019-02-21T03:27:41.898Z,67.90
2019-02-21T03:30:12.157Z,67.90
2019-02-21T03:32:38.097Z,68.00
2019-02-21T03:35:06.380Z,67.90
2019-02-21T03:37:33.961Z,68.30
2019-02-21T03:40:01.580Z,67.90
2019-02-21T03:42:30.531Z,67.80
2019-02-21T03:44:57.599Z,68.20
2019-02-21T03:47:25.277Z,67.90
2019-02-21T03:49:53.809Z,67.90
2019-02-21T03:52:20.928Z,68.80
2019-02-21T03:54:48.160Z,67.80
2019-02-21T03:57:15.688Z,67.30
2019-02-21T03:59:44.324Z,67.70
2019-02-21T04:02:11.667Z,67.70
2019-02-21T04:04:38.955Z,67.80
2019-02-21T04:07:06.137Z,67.30
2019-02-21T04:09:33.368Z,67.50
2019-02-21T04:12:01.895Z,67.30
2019-02-21T04:14:29.880Z,67.40
2019-02-21T04:16:57.379Z,67.60
2019-02-21T04:19:24.384Z,67.80
2019-02-21T04:21:51.743Z,67.80
2019-02-21T04:24:20.151Z,67.90
2019-02-21T04:26:48.545Z,67.90
2019-02-21T04:29:15.572Z,67.90
2019-02-21T04:31:43.312Z,68.20
2019-02-21T04:34:10.698Z,68.10
2019-02-21T04:36:38.107Z,67.80
2019-02-21T04:39:05.518Z,67.70
2019-02-21T04:41:33.585Z,67.80
2019-02-21T04:44:03.804Z,67.60
2019-02-21T04:46:30.304Z,67.80
2019-02-21T04:48:57.391Z,67.90
2019-02-21T04:51:25.314Z,68.00
2019-02-21T04:53:52.316Z,68.10
2019-02-21T04:56:19.446Z,68.00
2019-02-21T04:58:47.103Z,68.00
2019-02-21T05:01:15.154Z,67.90
2019-02-21T05:03:42.176Z,67.50
2019-02-21T05:06:09.145Z,67.60
2019-02-21T05:08:36.183Z,67.60
2019-02-21T05:11:03.568Z,67.60
2019-02-21T05:13:33.796Z,67.70
2019-02-21T05:16:01.908Z,67.60
2019-02-21T05:18:29.387Z,67.70
2019-02-21T05:20:58.169Z,67.90
2019-02-21T05:23:25.679Z,67.00
2019-02-21T05:25:54.172Z,67.30
2019-02-21T05:28:29.523Z,67.30
2019-02-21T05:31:01.181Z,67.30
2019-02-21T05:33:47.156Z,67.60
2019-02-21T05:36:46.357Z,68.70
2019-02-21T05:39:30.235Z,67.40
2019-02-21T05:42:08.619Z,67.60
2019-02-21T05:45:07.621Z,67.20
2019-02-21T05:47:44.511Z,67.30
2019-02-21T05:50:44.120Z,67.20
2019-02-21T05:53:31.517Z,67.90
2019-02-21T05:56:09.121Z,68.00
2019-02-21T05:58:44.503Z,68.20
2019-02-21T06:01:34.535Z,68.70
2019-02-21T06:04:07.242Z,69.00
2019-02-21T06:07:09.660Z,70.10
2019-02-21T06:09:41.580Z,69.40
2019-02-21T06:12:34.461Z,69.70
2019-02-21T06:15:20.388Z,69.90
2019-02-21T06:18:07.013Z,69.60
2019-02-21T06:20:48.635Z,69.70
2019-02-21T06:23:41.738Z,69.90
2019-02-21T06:26:28.063Z,69.80
2019-02-21T06:29:23.640Z,70.20
2019-02-21T06:31:51.655Z,70.30
2019-02-21T06:34:20.224Z,70.30
2019-02-21T06:36:47.484Z,70.50
2019-02-21T06:39:14.773Z,70.50
2019-02-21T06:41:42.763Z,70.90
2019-02-21T06:44:10.124Z,70.70
2019-02-21T06:46:37.100Z,71.10
2019-02-21T06:49:04.368Z,71.00
2019-02-21T06:51:31.365Z,71.20
2019-02-21T06:53:58.902Z,71.30
2019-02-21T06:56:26.404Z,71.60
2019-02-21T06:58:54.600Z,71.80
2019-02-21T07:01:26.983Z,71.90
2019-02-21T07:03:52.036Z,71.70
2019-02-21T07:06:19.435Z,71.30
2019-02-21T07:08:47.925Z,71.80
2019-02-21T07:11:15.063Z,71.50
2019-02-21T07:13:41.951Z,72.20
2019-02-21T07:16:09.919Z,73.00
2019-02-21T07:18:37.081Z,72.20
2019-02-21T07:21:04.660Z,72.10
2019-02-21T07:23:42.802Z,72.40
2019-02-21T07:26:10.575Z,72.80
2019-02-21T07:28:38.509Z,72.80
2019-02-21T07:31:06.604Z,74.00
2019-02-21T07:33:33.599Z,73.70
2019-02-21T07:36:00.727Z,74.40
2019-02-21T07:38:28.157Z,74.60
2019-02-21T07:40:56.995Z,74.60
2019-02-21T07:43:25.024Z,74.80
2019-02-21T07:45:52.216Z,75.30
2019-02-21T07:48:19.367Z,75.20
2019-02-21T07:50:47.955Z,74.60
2019-02-21T07:53:15.252Z,74.60
2019-02-21T07:55:42.457Z,74.60
2019-02-21T07:58:10.968Z,74.20
2019-02-21T08:00:38.079Z,74.10
2019-02-21T08:03:06.177Z,74.20
2019-02-21T08:05:33.861Z,74.30
2019-02-21T08:08:01.290Z,74.40
2019-02-21T08:10:33.473Z,74.40
2019-02-21T08:12:57.720Z,74.30
2019-02-21T08:15:27.461Z,74.00
2019-02-21T08:17:53.660Z,74.40
2019-02-21T08:20:20.793Z,74.70
2019-02-21T08:22:49.736Z,74.90
2019-02-21T08:25:19.241Z,75.20
2019-02-21T08:27:46.534Z,75.60
2019-02-21T08:30:14.108Z,75.40
2019-02-21T08:33:00.307Z,76.10
2019-02-21T08:35:27.589Z,75.70
2019-02-21T08:37:54.912Z,75.30
2019-02-21T08:40:24.981Z,75.40
2019-02-21T08:42:52.348Z,75.80
2019-02-21T08:45:19.687Z,75.80
2019-02-21T08:47:48.284Z,76.40
2019-02-21T08:50:15.835Z,75.60
2019-02-21T08:52:44.319Z,75.50
2019-02-21T08:55:11.516Z,75.90
2019-02-21T08:57:40.538Z,75.60
2019-02-21T09:00:11.536Z,75.60
2019-02-21T09:02:40.396Z,76.40
2019-02-21T09:05:09.551Z,75.70
2019-02-21T09:07:37.468Z,76.00
2019-02-21T09:10:05.223Z,76.50
2019-02-21T09:12:32.345Z,77.10
2019-02-21T09:14:59.864Z,76.40
2019-02-21T09:17:27.301Z,76.60
2019-02-21T09:19:54.640Z,76.40
2019-02-21T09:22:22.261Z,76.30
2019-02-21T09:24:49.843Z,76.40
2019-02-21T09:27:18.280Z,76.20
2019-02-21T09:29:45.796Z,76.30
2019-02-21T09:32:13.844Z,76.50
2019-02-21T09:34:40.792Z,76.50
2019-02-21T09:37:08.372Z,76.60
2019-02-21T09:39:35.876Z,76.80
2019-02-21T09:42:03.114Z,76.90
2019-02-21T09:44:30.537Z,77.00
2019-02-21T09:46:58.245Z,77.00
2019-02-21T09:49:26.063Z,77.00
2019-02-21T09:51:53.189Z,76.80
2019-02-21T09:54:20.657Z,76.90
2019-02-21T09:56:52.787Z,77.00
2019-02-21T09:59:16.952Z,76.70
2019-02-21T10:01:44.708Z,76.50
2019-02-21T10:04:12.628Z,76.50
2019-02-21T10:06:40.035Z,76.60
2019-02-21T10:09:07.448Z,76.80
2019-02-21T10:11:35.272Z,76.90
2019-02-21T10:14:02.475Z,78.20
2019-02-21T10:16:29.560Z,77.00
2019-02-21T10:18:56.987Z,77.20
2019-02-21T10:21:24.920Z,76.90
2019-02-21T10:23:52.356Z,76.70
2019-02-21T10:26:19.863Z,76.40
2019-02-21T10:28:47.892Z,76.30
2019-02-21T10:31:16.912Z,76.70
2019-02-21T10:33:47.326Z,76.40
2019-02-21T10:36:14.421Z,76.50
2019-02-21T10:38:41.429Z,76.40
2019-02-21T10:41:08.917Z,76.60
2019-02-21T10:43:37.015Z,76.20
2019-02-21T10:46:05.503Z,76.30
2019-02-21T10:48:34.375Z,76.30
2019-02-21T10:51:02.968Z,76.10
2019-02-21T10:53:30.168Z,76.60
2019-02-21T10:55:57.632Z,76.90
2019-02-21T10:58:24.642Z,76.50
2019-02-21T11:00:52.187Z,76.50
2019-02-21T11:03:19.603Z,76.80
2019-02-21T11:05:47.581Z,76.10
2019-02-21T11:08:14.596Z,76.00
2019-02-21T11:10:42.700Z,75.00
2019-02-21T11:13:10.084Z,74.80
2019-02-21T11:15:37.279Z,75.10
2019-02-21T11:18:05.591Z,74.80
2019-02-21T11:20:32.971Z,74.30
2019-02-21T11:23:00.154Z,74.70
2019-02-21T11:25:29.125Z,74.40
2019-02-21T11:27:56.584Z,74.60
2019-02-21T11:30:23.535Z,74.60
2019-02-21T11:32:51.064Z,74.50
2019-02-21T11:35:18.168Z,75.00
2019-02-21T11:37:47.066Z,75.10
2019-02-21T11:40:14.505Z,75.00
2019-02-21T11:42:41.699Z,74.80
2019-02-21T11:45:10.741Z,74.30
2019-02-21T11:47:37.884Z,74.10
2019-02-21T11:50:06.167Z,74.00
2019-02-21T11:52:33.116Z,74.30
2019-02-21T11:55:01.147Z,74.60
2019-02-21T11:57:28.526Z,75.00
2019-02-21T11:59:55.684Z,75.00
2019-02-21T12:02:22.748Z,75.40
2019-02-21T12:04:49.905Z,74.40
2019-02-21T12:07:16.960Z,74.40
2019-02-21T12:09:43.896Z,74.40
2019-02-21T12:12:12.477Z,74.30
2019-02-21T12:14:40.972Z,74.30
2019-02-21T12:17:08.596Z,74.40
2019-02-21T12:19:35.563Z,74.40
2019-02-21T12:22:02.828Z,74.40
2019-02-21T12:24:30.917Z,74.50
2019-02-21T12:26:58.421Z,74.60
2019-02-21T12:29:26.166Z,74.80
2019-02-21T12:31:54.590Z,74.60
2019-02-21T12:34:21.801Z,74.80
2019-02-21T12:36:49.699Z,75.10
2019-02-21T12:39:16.707Z,75.30
2019-02-21T12:41:45.307Z,75.50
2019-02-21T12:44:12.612Z,75.40
2019-02-21T12:46:40.168Z,75.00
2019-02-21T12:49:10.630Z,75.20
2019-02-21T12:51:38.344Z,75.20
2019-02-21T12:54:05.331Z,75.50
2019-02-21T12:56:32.315Z,75.90
2019-02-21T12:58:59.612Z,75.70
2019-02-21T13:01:27.864Z,75.40
2019-02-21T13:03:55.267Z,75.40
2019-02-21T13:06:22.254Z,75.60
2019-02-21T13:08:50.996Z,76.00
2019-02-21T13:11:18.008Z,75.70
2019-02-21T13:13:46.549Z,75.60
2019-02-21T13:16:13.927Z,75.60
2019-02-21T13:18:41.212Z,75.30
2019-02-21T13:21:08.395Z,75.20
2019-02-21T13:23:37.044Z,75.20
2019-02-21T13:26:04.626Z,75.10
2019-02-21T13:28:32.696Z,75.10
2019-02-21T13:30:59.998Z,75.00
2019-02-21T13:33:27.163Z,75.20
2019-02-21T13:35:55.426Z,75.20
2019-02-21T13:38:23.404Z,75.20
2019-02-21T13:40:50.548Z,75.20
2019-02-21T13:43:17.568Z,75.10
2019-02-21T13:45:45.415Z,75.10
2019-02-21T13:48:12.432Z,75.20
2019-02-21T13:50:39.420Z,75.30
2019-02-21T13:53:06.468Z,75.20
2019-02-21T13:55:34.888Z,75.40
2019-02-21T13:58:02.032Z,76.00
2019-02-21T14:00:30.048Z,75.30
2019-02-21T14:02:57.577Z,75.40
2019-02-21T14:05:24.982Z,75.60
2019-02-21T14:07:53.466Z,75.60
2019-02-21T14:10:21.333Z,75.40
2019-02-21T14:12:50.430Z,76.00
2019-02-21T14:15:20.421Z,75.30
2019-02-21T14:17:48.069Z,75.70
2019-02-21T14:20:15.790Z,75.30
2019-02-21T14:22:42.772Z,75.40
2019-02-21T14:25:11.308Z,75.30
2019-02-21T14:27:39.708Z,75.10
2019-02-21T14:30:09.757Z,75.10
2019-02-21T14:32:36.875Z,75.40
2019-02-21T14:35:04.780Z,75.50
2019-02-21T14:37:31.901Z,75.40
2019-02-21T14:39:58.912Z,75.40
2019-02-21T14:42:28.084Z,75.50
2019-02-21T14:44:57.117Z,75.40
2019-02-21T14:47:25.475Z,75.40
2019-02-21T14:49:52.592Z,75.30
2019-02-21T14:52:19.634Z,75.40
2019-02-21T14:54:46.788Z,75.20
2019-02-21T14:57:15.440Z,75.20
2019-02-21T14:59:45.019Z,75.20
2019-02-21T15:02:14.782Z,75.20
2019-02-21T15:04:43.110Z,75.20
2019-02-21T15:07:10.816Z,75.30
2019-02-21T15:09:39.133Z,75.30
2019-02-21T15:12:06.030Z,75.30
2019-02-21T15:14:33.611Z,75.50
2019-02-21T15:17:01.090Z,75.60
2019-02-21T15:19:29.804Z,75.50
2019-02-21T15:21:57.248Z,75.60
2019-02-21T15:24:24.259Z,75.90
2019-02-21T15:26:53.167Z,76.10
2019-02-21T15:29:20.607Z,76.20
2019-02-21T15:31:48.153Z,76.50
2019-02-21T15:34:16.625Z,76.80
2019-02-21T15:36:43.747Z,76.90
2019-02-21T15:39:11.324Z,77.20
2019-02-21T15:41:38.528Z,77.20
2019-02-21T15:44:06.259Z,77.00
2019-02-21T15:46:33.749Z,77.30
2019-02-21T15:49:02.021Z,76.80
2019-02-21T15:51:29.763Z,76.80
2019-02-21T15:53:57.735Z,77.10
2019-02-21T15:56:25.824Z,77.00
2019-02-21T15:58:53.207Z,77.10
2019-02-21T16:01:20.619Z,77.50
2019-02-21T16:03:48.660Z,77.30
2019-02-21T16:06:15.739Z,78.00
2019-02-21T16:08:43.154Z,77.80
2019-02-21T16:11:10.596Z,77.90
2019-02-21T16:13:38.349Z,78.10
2019-02-21T16:16:06.325Z,78.50
2019-02-21T16:18:33.477Z,78.20
2019-02-21T16:21:01.565Z,78.00
2019-02-21T16:23:28.435Z,78.40
2019-02-21T16:25:55.579Z,78.50
2019-02-21T16:28:22.576Z,78.70
2019-02-21T16:30:50.275Z,79.30
2019-02-21T16:33:17.163Z,79.20
2019-02-21T16:35:44.203Z,78.40
2019-02-21T16:38:11.855Z,78.70
2019-02-21T16:40:39.512Z,78.60
2019-02-21T16:43:06.824Z,78.50
2019-02-21T16:45:43.632Z,79.00
2019-02-21T16:48:05.988Z,79.70
2019-02-21T16:50:33.054Z,79.30
2019-02-21T16:53:00.545Z,79.00
2019-02-21T16:55:27.751Z,78.80
2019-02-21T16:57:55.277Z,79.20
2019-02-21T17:00:24.099Z,79.60
2019-02-21T17:02:52.632Z,80.30
2019-02-21T17:05:20.155Z,80.00
2019-02-21T17:07:47.356Z,80.20
2019-02-21T17:10:14.782Z,80.60
2019-02-21T17:12:43.159Z,80.50
2019-02-21T17:15:10.995Z,80.50
2019-02-21T17:17:39.773Z,80.80
2019-02-21T17:20:08.703Z,81.00
2019-02-21T17:22:36.347Z,80.50
2019-02-21T17:25:03.891Z,80.10
2019-02-21T17:27:32.264Z,80.10
2019-02-21T17:29:59.344Z,80.50
2019-02-21T17:32:28.854Z,81.60
2019-02-21T17:34:56.155Z,83.10
2019-02-21T17:37:25.266Z,83.60
2019-02-21T17:39:54.245Z,84.10
2019-02-21T17:42:23.194Z,84.30
2019-02-21T17:44:50.664Z,84.40
2019-02-21T17:47:18.693Z,84.30
2019-02-21T17:49:46.111Z,84.80
2019-02-21T17:52:13.255Z,85.10
2019-02-21T17:54:40.172Z,85.10
2019-02-21T17:57:08.192Z,84.90
2019-02-21T17:59:35.367Z,85.10
2019-02-21T18:02:04.027Z,85.10
2019-02-21T18:04:30.896Z,85.20
2019-02-21T18:06:58.843Z,85.20
2019-02-21T18:09:25.867Z,85.30
2019-02-21T18:11:52.842Z,85.30
2019-02-21T18:14:20.996Z,85.30
2019-02-21T18:16:48.335Z,85.30
2019-02-21T18:19:15.423Z,85.40
2019-02-21T18:21:42.564Z,85.40
2019-02-21T18:24:09.664Z,85.60
2019-02-21T18:26:37.644Z,85.70
2019-02-21T18:29:05.787Z,85.50
2019-02-21T18:31:33.011Z,85.60
2019-02-21T18:34:00.400Z,85.70
2019-02-21T18:36:28.839Z,85.80
2019-02-21T18:38:57.129Z,85.80
2019-02-21T18:41:24.615Z,85.80
2019-02-21T18:43:53.233Z,85.70
2019-02-21T18:46:21.650Z,86.00
2019-02-21T18:48:49.292Z,85.90
2019-02-21T18:51:18.805Z,85.80
2019-02-21T18:53:46.371Z,86.10
2019-02-21T18:56:14.524Z,86.20
2019-02-21T18:58:43.382Z,86.10
2019-02-21T19:01:11.133Z,85.80
2019-02-21T19:03:40.049Z,85.70
2019-02-21T19:06:07.751Z,85.70
2019-02-21T19:08:35.654Z,85.70
2019-02-21T19:11:02.656Z,85.90
2019-02-21T19:13:29.731Z,85.80
2019-02-21T19:15:56.735Z,85.60
2019-02-21T19:18:24.337Z,85.80
2019-02-21T19:20:52.303Z,85.50
2019-02-21T19:23:20.604Z,85.60
2019-02-21T19:25:48.131Z,85.50
2019-02-21T19:28:17.047Z,85.60
2019-02-21T19:30:49.774Z,85.90
2019-02-21T19:33:17.647Z,85.70
2019-02-21T19:35:48.504Z,85.70
2019-02-21T19:38:16.432Z,85.60
2019-02-21T19:40:43.752Z,85.50
2019-02-21T19:43:11.401Z,85.60
2019-02-21T19:45:38.547Z,85.50
2019-02-21T19:48:06.386Z,85.20
2019-02-21T19:50:33.440Z,85.20
2019-02-21T19:53:01.914Z,85.10
2019-02-21T19:55:29.652Z,84.90
2019-02-21T19:57:58.468Z,84.70
2019-02-21T20:00:26.895Z,84.70
2019-02-21T20:02:54.357Z,84.40
2019-02-21T20:05:21.777Z,84.40
2019-02-21T20:07:48.969Z,84.70
2019-02-21T20:10:16.363Z,84.50
2019-02-21T20:12:43.899Z,85.00
2019-02-21T20:15:11.911Z,84.60
2019-02-21T20:17:39.787Z,84.50
2019-02-21T20:20:08.475Z,84.20
2019-02-21T20:22:37.195Z,84.40
2019-02-21T20:25:04.507Z,84.10
2019-02-21T20:27:31.687Z,84.30
2019-02-21T20:30:00.621Z,83.90
2019-02-21T20:32:28.659Z,84.20
2019-02-21T20:34:55.661Z,84.10
2019-02-21T20:37:22.627Z,84.00
2019-02-21T20:39:50.099Z,84.10
2019-02-21T20:42:18.600Z,84.00
2019-02-21T20:44:45.776Z,83.90
2019-02-21T20:47:13.659Z,84.20
2019-02-21T20:49:41.072Z,84.00
2019-02-21T20:52:08.111Z,84.00
2019-02-21T20:54:35.280Z,83.80
2019-02-21T20:57:02.600Z,84.00
2019-02-21T20:59:30.476Z,83.60
2019-02-21T21:01:58.283Z,83.90
2019-02-21T21:04:26.251Z,83.70
2019-02-21T21:06:54.179Z,83.90
2019-02-21T21:09:21.743Z,83.80
2019-02-21T21:11:49.128Z,83.60
2019-02-21T21:14:16.016Z,83.70
2019-02-21T21:16:44.040Z,83.50
2019-02-21T21:19:11.144Z,83.60
2019-02-21T21:21:38.477Z,83.40
2019-02-21T21:24:06.843Z,83.50
2019-02-21T21:26:34.023Z,83.40
2019-02-21T21:29:01.360Z,83.30
2019-02-21T21:31:29.497Z,83.70
2019-02-21T21:33:56.640Z,83.50
2019-02-21T21:36:24.176Z,83.70
2019-02-21T21:38:54.291Z,83.70
2019-02-21T21:41:22.013Z,83.70
2019-02-21T21:43:50.822Z,83.60
2019-02-21T21:46:17.920Z,83.60
2019-02-21T21:48:46.228Z,83.50
2019-02-21T21:51:14.512Z,83.70
2019-02-21T21:53:41.733Z,83.30
2019-02-21T21:56:09.232Z,83.50
2019-02-21T21:58:36.712Z,83.40
2019-02-21T22:01:03.859Z,83.60
2019-02-21T22:03:31.500Z,83.50
2019-02-21T22:05:58.900Z,83.70
2019-02-21T22:08:26.616Z,83.60
2019-02-21T22:10:53.718Z,84.10
2019-02-21T22:13:20.964Z,83.50
2019-02-21T22:15:47.957Z,83.30
2019-02-21T22:18:15.479Z,83.60
2019-02-21T22:20:42.701Z,83.50
2019-02-21T22:23:09.835Z,83.40
2019-02-21T22:25:38.559Z,83.30
2019-02-21T22:28:05.646Z,83.10
2019-02-21T22:30:32.732Z,83.30
2019-02-21T22:33:00.432Z,83.10
2019-02-21T22:35:27.711Z,83.20
2019-02-21T22:37:54.723Z,83.10
2019-02-21T22:40:22.103Z,83.20
2019-02-21T22:42:49.193Z,83.20
2019-02-21T22:45:16.298Z,83.30
2019-02-21T22:47:43.928Z,83.10
2019-02-21T22:50:13.115Z,83.00
2019-02-21T22:52:40.396Z,83.30
2019-02-21T22:55:10.110Z,83.20
2019-02-21T22:57:36.843Z,83.10
2019-02-21T23:00:27.635Z,83.10
2019-02-21T23:02:55.255Z,83.20
2019-02-21T23:06:09.391Z,83.20
2019-02-21T23:08:52.107Z,83.50
2019-02-21T23:11:20.495Z,84.40
2019-02-21T23:13:47.938Z,83.80
2019-02-21T23:16:15.676Z,84.00
2019-02-21T23:18:44.795Z,84.00
2019-02-21T23:21:12.606Z,84.20
2019-02-21T23:23:39.939Z,84.00
2019-02-21T23:26:08.359Z,84.20
2019-02-21T23:28:35.552Z,84.40
2019-02-21T23:31:03.666Z,84.50
2019-02-21T23:33:32.271Z,84.30
2019-02-21T23:35:59.464Z,84.30
2019-02-21T23:38:26.784Z,84.30
2019-02-21T23:40:54.504Z,84.40
2019-02-21T23:43:21.759Z,84.50
2019-02-21T23:45:49.406Z,84.40
2019-02-21T23:48:18.241Z,84.30
2019-02-21T23:50:45.634Z,84.50
2019-02-21T23:53:13.197Z,84.50
2019-02-21T23:55:40.213Z,84.40
2019-02-21T23:58:07.178Z,84.60
